createdAt,value
2022-11-10T17:02:30.538Z,170.00
2022-11-10T17:04:20.840Z,174.00
2022-11-10T17:06:13.656Z,166.75
2022-11-10T17:08:03.979Z,185.50
2022-11-10T17:09:55.706Z,230.33
2022-11-10T17:11:45.521Z,282.00
2022-11-10T17:13:35.995Z,215.33
2022-11-10T17:15:26.359Z,207.25
2022-11-10T17:17:18.497Z,186.50
2022-11-10T17:19:14.123Z,188.25
2022-11-10T17:21:04.071Z,169.50
2022-11-10T17:22:54.511Z,164.00
2022-11-10T17:24:46.424Z,150.50
2022-11-10T17:26:36.870Z,152.00
2022-11-10T17:28:27.228Z,156.25
2022-11-10T17:30:17.633Z,157.00
2022-11-10T17:32:07.756Z,161.25
2022-11-10T17:33:58.266Z,168.00
2022-11-10T17:35:50.122Z,163.50
2022-11-10T17:37:40.613Z,163.00
2022-11-10T17:39:31.725Z,160.75
2022-11-10T17:41:22.401Z,183.50
2022-11-10T17:43:13.155Z,173.00
2022-11-10T17:45:03.814Z,180.00
2022-11-10T17:46:54.265Z,180.25
2022-11-10T17:48:44.461Z,195.00
2022-11-10T17:50:36.180Z,188.00
2022-11-10T17:52:26.989Z,217.25
2022-11-10T17:54:18.169Z,188.75
2022-11-10T17:56:08.742Z,199.75
2022-11-10T17:57:59.432Z,193.00
2022-11-10T17:59:50.279Z,187.75
2022-11-10T18:01:40.371Z,200.00
2022-11-10T18:03:31.047Z,174.00
2022-11-10T18:05:21.462Z,197.75
2022-11-10T18:07:12.307Z,188.75
2022-11-10T18:09:02.977Z,165.50
2022-11-10T18:10:53.724Z,190.00
2022-11-10T18:12:44.651Z,185.00
2022-11-10T18:14:35.143Z,182.00
2022-11-10T18:16:27.320Z,176.00
2022-11-10T18:18:17.970Z,183.00
2022-11-10T18:20:12.013Z,189.00
2022-11-10T18:22:02.260Z,189.00
2022-11-10T18:23:53.142Z,199.25
2022-11-10T18:25:44.395Z,198.00
2022-11-10T18:27:36.879Z,192.75
2022-11-10T18:29:27.583Z,214.00
2022-11-10T18:31:19.240Z,201.50
2022-11-10T18:33:12.327Z,202.50
2022-11-10T18:35:03.184Z,202.25
2022-11-10T18:36:54.135Z,185.75
2022-11-10T18:38:44.750Z,246.33
2022-11-10T18:40:35.948Z,279.67
2022-11-10T18:42:27.777Z,301.50
2022-11-10T18:44:19.413Z,281.00
2022-11-10T18:46:09.888Z,239.33
2022-11-10T18:48:01.368Z,220.25
2022-11-10T18:49:52.039Z,193.25
2022-11-10T18:51:42.707Z,192.50
2022-11-10T18:53:38.104Z,188.25
2022-11-10T18:55:29.261Z,179.25
2022-11-10T18:57:20.252Z,195.25
2022-11-10T18:59:11.133Z,191.50
2022-11-10T19:01:06.506Z,194.75
2022-11-10T19:02:57.055Z,210.75
2022-11-10T19:04:52.103Z,198.25
2022-11-10T19:06:44.533Z,192.00
2022-11-10T19:08:35.681Z,187.25
2022-11-10T19:10:26.216Z,184.00
2022-11-10T19:12:16.721Z,180.00
2022-11-10T19:14:07.097Z,181.50
2022-11-10T19:16:00.328Z,177.25
2022-11-10T19:17:51.323Z,181.25
2022-11-10T19:19:41.947Z,179.50
2022-11-10T19:21:32.377Z,178.00
2022-11-10T19:23:23.146Z,168.00
2022-11-10T19:25:14.026Z,164.50
2022-11-10T19:27:04.319Z,165.00
2022-11-10T19:28:55.790Z,141.75
2022-11-10T19:30:46.676Z,154.75
2022-11-10T19:32:37.124Z,150.00
2022-11-10T19:34:27.994Z,163.25
2022-11-10T19:36:23.025Z,150.25
2022-11-10T19:38:13.806Z,134.00
2022-11-10T19:40:04.533Z,165.50
2022-11-10T19:41:54.885Z,163.00
2022-11-10T19:43:47.577Z,162.25
2022-11-10T19:45:38.590Z,155.75
2022-11-10T19:47:32.029Z,174.75
2022-11-10T19:49:23.106Z,163.25
2022-11-10T19:51:14.780Z,157.25
2022-11-10T19:53:05.868Z,154.25
2022-11-10T19:54:56.507Z,149.25
2022-11-10T19:56:47.719Z,180.50
2022-11-10T19:58:38.650Z,167.25
2022-11-10T20:00:29.290Z,177.25
2022-11-10T20:02:20.034Z,186.50
2022-11-10T20:04:12.525Z,183.00
2022-11-10T20:06:07.178Z,189.00
2022-11-10T20:08:12.784Z,176.25
2022-11-10T20:10:03.542Z,174.25
2022-11-10T20:11:54.193Z,191.50
2022-11-10T20:13:45.026Z,187.00
2022-11-10T20:15:42.012Z,177.25
2022-11-10T20:17:32.222Z,187.00
2022-11-10T20:19:23.023Z,188.25
2022-11-10T20:21:15.789Z,178.50
2022-11-10T20:23:09.215Z,180.25
2022-11-10T20:24:59.976Z,182.25
2022-11-10T20:26:50.835Z,200.00
2022-11-10T20:28:41.670Z,186.75
2022-11-10T20:30:35.274Z,180.00
2022-11-10T20:32:26.708Z,183.25
2022-11-10T20:34:17.660Z,176.00
2022-11-10T20:36:20.574Z,175.25
2022-11-10T20:38:11.457Z,185.00
2022-11-10T20:40:07.447Z,179.50
2022-11-10T20:42:10.716Z,201.50
2022-11-10T20:44:01.367Z,173.25
2022-11-10T20:45:55.353Z,197.75
2022-11-10T20:47:47.545Z,192.50
2022-11-10T20:49:38.619Z,195.75
2022-11-10T20:51:30.364Z,204.25
2022-11-10T20:53:21.279Z,202.50
2022-11-10T20:55:18.073Z,193.50
2022-11-10T20:57:09.446Z,199.00
2022-11-10T20:58:59.844Z,203.25
2022-11-10T21:00:50.371Z,173.75
2022-11-10T21:02:41.379Z,186.75
2022-11-10T21:04:32.350Z,209.25
2022-11-10T21:06:23.480Z,202.00
2022-11-10T21:08:14.324Z,193.25
2022-11-10T21:10:05.569Z,212.75
2022-11-10T21:12:14.923Z,204.00
2022-11-10T21:14:05.398Z,192.25
2022-11-10T21:15:58.017Z,201.75
2022-11-10T21:17:48.700Z,195.00
2022-11-10T21:19:39.256Z,191.50
2022-11-10T21:21:35.127Z,189.50
2022-11-10T21:23:26.421Z,193.00
2022-11-10T21:25:19.304Z,204.75
2022-11-10T21:27:10.231Z,188.50
2022-11-10T21:29:01.063Z,200.50
2022-11-10T21:30:51.894Z,190.00
2022-11-10T21:32:42.502Z,230.33
2022-11-10T21:34:33.430Z,190.75
2022-11-10T21:36:28.999Z,194.00
2022-11-10T21:38:20.217Z,179.75
2022-11-10T21:40:11.293Z,173.25
2022-11-10T21:42:02.904Z,179.50
2022-11-10T21:43:53.798Z,179.50
2022-11-10T21:45:43.978Z,188.50
2022-11-10T21:47:34.379Z,198.00
2022-11-10T21:49:24.475Z,202.50
2022-11-10T21:51:14.762Z,207.67
2022-11-10T21:53:08.327Z,199.25
2022-11-10T21:54:59.718Z,192.50
2022-11-10T21:56:50.310Z,192.00
2022-11-10T21:58:40.690Z,199.50
2022-11-10T22:00:32.001Z,186.00
2022-11-10T22:02:22.106Z,188.75
2022-11-10T22:04:12.619Z,180.00
2022-11-10T22:06:07.224Z,179.25
2022-11-10T22:07:57.341Z,189.50
2022-11-10T22:10:06.496Z,195.00
2022-11-10T22:12:15.017Z,178.50
2022-11-10T22:14:30.291Z,178.00
2022-11-10T22:17:02.622Z,191.00
2022-11-10T22:18:53.079Z,179.25
2022-11-10T22:20:43.635Z,171.75
2022-11-10T22:22:33.921Z,165.75
2022-11-10T22:24:24.344Z,184.75
2022-11-10T22:26:14.708Z,160.25
2022-11-10T22:28:05.467Z,176.75
2022-11-10T22:29:55.625Z,164.50
2022-11-10T22:31:45.795Z,143.50
2022-11-10T22:33:36.593Z,162.25
2022-11-10T22:35:44.602Z,160.75
2022-11-10T22:37:34.782Z,161.25
2022-11-10T22:39:45.018Z,156.75
2022-11-10T22:41:53.915Z,163.00
2022-11-10T22:44:02.921Z,154.25
2022-11-10T22:45:53.462Z,160.50
2022-11-10T22:48:02.391Z,163.25
2022-11-10T22:49:53.077Z,148.75
2022-11-10T22:51:45.367Z,157.25
2022-11-10T22:53:38.501Z,165.25
2022-11-10T22:55:28.778Z,163.25
2022-11-10T22:57:20.461Z,157.00
2022-11-10T22:59:11.199Z,154.25
2022-11-10T23:01:05.739Z,161.50
2022-11-10T23:02:56.272Z,155.25
2022-11-10T23:04:46.758Z,143.25
2022-11-10T23:06:37.127Z,149.50
2022-11-10T23:08:27.835Z,170.50
2022-11-10T23:10:17.784Z,153.00
2022-11-10T23:12:07.743Z,168.75
2022-11-10T23:13:58.064Z,154.50
2022-11-10T23:15:52.101Z,155.25
2022-11-10T23:17:42.178Z,160.25
2022-11-10T23:19:32.608Z,164.50
2022-11-10T23:21:24.883Z,160.75
2022-11-10T23:23:14.970Z,170.00
2022-11-10T23:25:05.851Z,187.50
2022-11-10T23:26:56.293Z,171.50
2022-11-10T23:28:46.542Z,160.00
2022-11-10T23:30:36.907Z,170.00
2022-11-10T23:32:26.745Z,168.50
2022-11-10T23:34:17.005Z,160.75
